Time;durP1;ratioP1;P1;durP2;ratioP2;P2;SDS_P1;SDS_P2;PMS_P1;PMS_P2;Temp;Humidity;BMP_temperature;BMP_pressure;BME280_temperature;BME280_humidity;BME280_pressure;Samples;Min_cycle;Max_cycle;Signal;HPM_P1;HPM_P2
2022/06/18 00:01:57;;;;;;;4.88;3.92;;;;;;;19.54;49.25;93596.50;2048325;70;20555;-70
2022/06/18 00:04:25;;;;;;;4.43;3.50;;;;;;;19.37;49.88;93591.47;2048369;70;20170;-72
2022/06/18 00:07:03;;;;;;;6.60;4.25;;;;;;;19.03;50.82;93595.06;2048371;70;20518;-69
2022/06/18 00:09:33;;;;;;;4.90;3.90;;;;;;;19.29;50.18;93598.31;2045192;70;20149;-70
2022/06/18 00:14:56;;;;;;;7.25;3.78;;;;;;;19.32;50.45;93612.69;2048295;70;20139;-72
2022/06/18 00:17:24;;;;;;;6.03;3.80;;;;;;;19.25;50.10;93603.13;2042503;70;20221;-70
2022/06/18 00:19:50;;;;;;;6.60;3.80;;;;;;;19.27;49.94;93597.50;2045479;70;20143;-70
2022/06/18 00:22:19;;;;;;;3.53;3.22;;;;;;;19.38;48.76;93605.13;2045531;70;20238;-70
2022/06/18 00:24:46;;;;;;;5.85;4.00;;;;;;;18.94;50.89;93598.94;2045598;70;20151;-70
2022/06/18 00:27:17;;;;;;;7.43;3.40;;;;;;;19.07;49.69;93600.22;2045815;70;20231;-71
2022/06/18 00:29:47;;;;;;;8.35;3.70;;;;;;;19.04;50.70;93604.34;2045508;70;20610;-71
2022/06/18 00:32:13;;;;;;;5.20;3.50;;;;;;;18.79;50.58;93605.41;2045363;69;20218;-70
2022/06/18 00:34:40;;;;;;;5.88;3.53;;;;;;;19.01;49.64;93602.78;2045453;70;20158;-70
2022/06/18 00:37:07;;;;;;;5.07;3.70;;;;;;;18.88;50.35;93601.53;2045428;69;20212;-70
2022/06/18 00:39:33;;;;;;;4.40;3.10;;;;;;;18.97;50.55;93611.19;2042069;70;20150;-72
2022/06/18 00:42:05;;;;;;;6.20;3.45;;;;;;;18.89;48.54;93605.84;2045860;70;20157;-69
2022/06/18 00:44:38;;;;;;;3.60;3.30;;;;;;;19.28;47.05;93610.38;2047143;70;20531;-72
2022/06/18 00:47:55;;;;;;;7.00;3.42;;;;;;;19.16;48.38;93612.72;2045015;70;20170;-73
2022/06/18 00:50:48;;;;;;;3.80;3.40;;;;;;;18.86;50.08;93604.28;2031019;70;20251;-72
2022/06/18 00:53:22;;;;;;;4.13;3.65;;;;;;;18.96;50.27;93604.72;2034011;70;20194;-70
2022/06/18 00:56:00;;;;;;;4.20;3.60;;;;;;;18.90;50.00;93593.06;2031209;70;20140;-70
2022/06/18 00:58:58;;;;;;;6.93;3.20;;;;;;;19.00;49.49;93590.63;2028704;70;20163;-71
2022/06/18 01:01:34;;;;;;;4.00;3.20;;;;;;;18.97;49.56;93594.81;2032612;70;20210;-72
2022/06/18 01:04:00;;;;;;;11.10;3.63;;;;;;;18.84;49.71;93595.66;2033909;70;20156;-76
2022/06/18 01:06:32;;;;;;;4.75;3.10;;;;;;;19.02;48.58;93590.75;2031267;70;20144;-72
2022/06/18 01:09:03;;;;;;;6.85;3.20;;;;;;;18.90;48.97;93581.66;2033778;70;20156;-71
2022/06/18 01:11:34;;;;;;;4.47;3.23;;;;;;;18.98;48.84;93576.28;2030963;70;20255;-71
2022/06/18 01:14:04;;;;;;;3.92;3.45;;;;;;;18.99;47.87;93572.06;2033813;70;20152;-71
2022/06/18 01:16:34;;;;;;;5.68;3.03;;;;;;;18.97;47.72;93571.97;2031156;70;20274;-72
2022/06/18 01:19:09;;;;;;;5.22;3.38;;;;;;;19.14;46.81;93572.66;2034182;70;20203;-71
2022/06/18 01:21:48;;;;;;;5.75;3.28;;;;;;;19.15;47.42;93568.41;2034073;70;20151;-72
2022/06/18 01:24:23;;;;;;;4.38;3.40;;;;;;;18.99;47.41;93571.31;2031455;70;20156;-72
2022/06/18 01:26:53;;;;;;;5.78;3.70;;;;;;;19.18;46.63;93578.53;2044879;70;20522;-72
2022/06/18 01:29:28;;;;;;;5.07;3.72;;;;;;;19.10;47.04;93561.81;2045281;70;20158;-71
2022/06/18 01:32:01;;;;;;;4.18;3.28;;;;;;;19.03;47.50;93566.53;2040431;70;20155;-72
2022/06/18 01:34:29;;;;;;;6.47;3.40;;;;;;;19.03;47.77;93568.66;2045310;70;20206;-70
2022/06/18 01:36:59;;;;;;;4.00;3.42;;;;;;;18.98;48.17;93567.00;2044810;70;20139;-71
2022/06/18 01:39:31;;;;;;;3.45;3.15;;;;;;;18.86;49.16;93570.06;2057576;69;20185;-71
2022/06/18 01:42:03;;;;;;;4.25;3.38;;;;;;;18.81;49.19;93571.25;2057898;69;20151;-72
2022/06/18 01:44:46;;;;;;;4.55;3.65;;;;;;;18.94;47.94;93572.53;2041652;70;20508;-72
2022/06/18 01:47:40;;;;;;;5.90;3.20;;;;;;;19.02;47.61;93565.06;2044823;70;20155;-71
2022/06/18 01:50:15;;;;;;;4.15;3.30;;;;;;;18.85;48.06;93556.44;2045286;70;20151;-72
2022/06/18 01:53:04;;;;;;;3.67;3.33;;;;;;;18.93;47.80;93556.81;2047068;70;20174;-71
2022/06/18 01:55:38;;;;;;;5.90;3.40;;;;;;;18.98;46.64;93555.59;2047631;70;20149;-71
2022/06/18 01:58:19;;;;;;;4.00;3.17;;;;;;;18.96;46.87;93549.78;2042281;70;20590;-71
2022/06/18 02:00:52;;;;;;;4.43;3.28;;;;;;;18.93;46.95;93551.81;2045493;70;20237;-73
2022/06/18 02:03:20;;;;;;;4.93;3.40;;;;;;;18.99;46.27;93540.66;2045666;70;20354;-71
2022/06/18 02:05:50;;;;;;;5.00;3.30;;;;;;;18.93;47.82;93542.53;2045789;69;20159;-72
2022/06/18 02:08:18;;;;;;;5.90;3.70;;;;;;;18.76;49.06;93538.97;2046548;70;20189;-71
2022/06/18 02:11:08;;;;;;;6.70;3.42;;;;;;;18.75;48.54;93545.31;2045226;70;20496;-71
2022/06/18 02:13:38;;;;;;;7.18;4.07;;;;;;;18.74;48.16;93550.31;2045136;70;20175;-71
2022/06/18 02:16:12;;;;;;;5.60;3.50;;;;;;;18.61;48.38;93541.81;2047177;69;20150;-72
2022/06/18 02:18:38;;;;;;;4.15;3.55;;;;;;;18.41;50.49;93550.91;2045098;70;20231;-71
2022/06/18 02:21:09;;;;;;;4.78;3.50;;;;;;;18.54;48.80;93552.94;2043499;69;20252;-74
2022/06/18 02:23:34;;;;;;;5.53;3.20;;;;;;;18.60;48.75;93546.03;2057978;69;20248;-73
2022/06/18 02:26:01;;;;;;;7.78;3.60;;;;;;;18.67;49.05;93553.50;2042157;69;20131;-73
2022/06/18 02:28:32;;;;;;;6.35;3.40;;;;;;;18.63;48.61;93548.34;2045796;70;20265;-72
2022/06/18 02:31:00;;;;;;;4.50;3.58;;;;;;;18.37;50.08;93556.47;2045170;70;20182;-73
2022/06/18 02:33:36;;;;;;;4.65;3.45;;;;;;;18.45;49.61;93562.50;2048645;70;20173;-72
2022/06/18 02:36:14;;;;;;;5.13;3.70;;;;;;;18.46;49.53;93555.44;2048455;70;20618;-74
2022/06/18 02:38:40;;;;;;;4.18;3.42;;;;;;;18.40;50.57;93566.56;2048465;70;20178;-76
2022/06/18 02:41:06;;;;;;;5.18;3.50;;;;;;;18.29;51.70;93567.47;2045463;70;20143;-73
2022/06/18 02:43:33;;;;;;;8.90;3.42;;;;;;;18.29;51.04;93568.22;2045521;70;20150;-73
2022/06/18 02:46:00;;;;;;;5.85;3.88;;;;;;;18.20;51.60;93566.38;2048728;70;20171;-74
2022/06/18 02:48:30;;;;;;;6.90;3.47;;;;;;;18.09;52.08;93555.88;2044973;70;20202;-71
2022/06/18 02:50:58;;;;;;;4.53;3.30;;;;;;;18.21;51.29;93555.72;2042376;70;20462;-72
2022/06/18 02:53:25;;;;;;;5.00;3.83;;;;;;;18.18;51.22;93562.69;2046679;70;20147;-73
2022/06/18 02:55:55;;;;;;;5.80;4.10;;;;;;;17.93;52.68;93555.84;2048811;70;20652;-73
2022/06/18 02:58:26;;;;;;;6.68;3.65;;;;;;;18.14;51.04;93565.34;2044883;70;20211;-73
2022/06/18 03:01:03;;;;;;;4.20;3.42;;;;;;;17.96;52.89;93554.59;2045176;70;20149;-72
2022/06/18 03:03:33;;;;;;;5.47;3.47;;;;;;;17.91;53.05;93558.59;2042070;70;20217;-74
2022/06/18 03:05:59;;;;;;;5.32;3.78;;;;;;;17.89;52.74;93560.63;2042020;70;20150;-71
2022/06/18 03:08:28;;;;;;;7.03;3.90;;;;;;;17.58;54.04;93564.09;2043525;70;20543;-72
2022/06/18 03:13:42;;;;;;;4.63;3.53;;;;;;;17.78;53.16;93560.16;2045374;70;20154;-71
2022/06/18 03:16:10;;;;;;;5.50;3.80;;;;;;;17.70;53.07;93562.56;2045176;70;20576;-71
2022/06/18 03:18:39;;;;;;;5.82;3.47;;;;;;;17.73;53.62;93566.25;2044653;70;20147;-72
2022/06/18 03:21:27;;;;;;;8.43;3.83;;;;;;;17.82;52.23;93564.53;2044775;70;20517;-72
2022/06/18 03:23:53;;;;;;;4.97;3.50;;;;;;;17.75;52.84;93560.69;2042054;70;20159;-74
2022/06/18 03:26:20;;;;;;;4.95;3.30;;;;;;;17.71;52.71;93558.34;2042023;70;20196;-72
2022/06/18 03:28:51;;;;;;;10.23;3.83;;;;;;;17.59;53.28;93554.16;2041992;70;20172;-73
2022/06/18 03:31:17;;;;;;;9.38;4.20;;;;;;;17.58;53.68;93561.97;2041907;70;20150;-72
2022/06/18 03:33:43;;;;;;;6.90;3.60;;;;;;;17.61;53.57;93554.28;2041985;70;20326;-75
2022/06/18 03:36:11;;;;;;;6.25;3.75;;;;;;;17.52;53.14;93553.88;2042055;70;20227;-74
2022/06/18 03:38:37;;;;;;;7.47;3.55;;;;;;;17.48;53.70;93562.22;2039293;70;20163;-75
2022/06/18 03:41:04;;;;;;;4.88;3.75;;;;;;;17.58;52.97;93567.66;2042012;69;20679;-73
2022/06/18 03:43:31;;;;;;;5.90;4.00;;;;;;;17.70;52.43;93556.16;2041986;70;20509;-73
2022/06/18 03:46:00;;;;;;;7.03;3.78;;;;;;;17.59;53.32;93554.16;2041844;69;20277;-73
2022/06/18 03:48:35;;;;;;;6.05;3.97;;;;;;;17.60;53.21;93559.25;2042227;70;20174;-74
2022/06/18 03:51:00;;;;;;;5.45;3.58;;;;;;;17.57;53.09;93554.09;2045233;70;20150;-76
2022/06/18 03:53:26;;;;;;;6.05;4.10;;;;;;;17.12;54.41;93558.31;2042343;70;20220;-75
2022/06/18 03:55:52;;;;;;;6.30;3.90;;;;;;;17.38;54.07;93561.00;2041966;70;20151;-72
2022/06/18 03:58:18;;;;;;;7.05;3.95;;;;;;;17.45;53.86;93562.75;2045285;70;20153;-73
2022/06/18 04:00:45;;;;;;;7.28;3.90;;;;;;;17.53;53.42;93560.31;2041807;70;20588;-75
2022/06/18 04:03:11;;;;;;;6.47;3.90;;;;;;;17.41;53.42;93556.84;2041923;70;20167;-73
2022/06/18 04:05:39;;;;;;;4.50;3.70;;;;;;;17.53;52.39;93549.66;2041910;70;20151;-73
2022/06/18 04:08:05;;;;;;;4.75;3.45;;;;;;;17.50;52.64;93542.41;2042005;70;20224;-73
2022/06/18 04:10:51;;;;;;;5.82;3.97;;;;;;;17.31;53.11;93544.97;2045013;70;20470;-73
2022/06/18 04:13:17;;;;;;;6.30;3.90;;;;;;;17.41;52.88;93545.47;2045401;70;20684;-75
2022/06/18 04:16:10;;;;;;;8.02;3.83;;;;;;;17.47;53.53;93540.09;2041848;70;20163;-74
2022/06/18 04:18:37;;;;;;;6.85;4.10;;;;;;;17.64;52.23;93541.59;2042257;70;20229;-75
2022/06/18 04:21:05;;;;;;;7.78;4.10;;;;;;;17.53;53.65;93537.53;2044749;70;20614;-72
2022/06/18 04:23:33;;;;;;;6.15;3.60;;;;;;;17.40;54.00;93539.03;2041895;70;20159;-72
2022/06/18 04:25:59;;;;;;;7.63;3.60;;;;;;;17.61;52.58;93535.09;2045055;70;20193;-74
2022/06/18 04:28:27;;;;;;;5.22;3.63;;;;;;;17.73;52.08;93535.72;2041890;70;20588;-73
2022/06/18 04:31:01;;;;;;;6.80;4.05;;;;;;;16.86;55.84;93534.22;2041817;70;20158;-72
2022/06/18 04:33:32;;;;;;;5.40;4.00;;;;;;;17.19;54.28;93530.91;2045170;70;20166;-71
2022/06/18 04:36:31;;;;;;;8.77;4.13;;;;;;;17.34;54.83;93532.34;2043613;70;20163;-71
2022/06/18 04:38:58;;;;;;;5.60;4.05;;;;;;;17.38;54.30;93536.13;2045351;70;20241;-71
2022/06/18 04:41:36;;;;;;;5.78;4.38;;;;;;;17.36;54.09;93541.69;2045445;70;20159;-72
2022/06/18 04:44:09;;;;;;;8.57;3.92;;;;;;;17.42;54.65;93535.59;2042928;70;20161;-73
2022/06/18 04:46:36;;;;;;;5.05;4.10;;;;;;;17.30;55.39;93546.38;2045373;70;20143;-72
2022/06/18 04:49:02;;;;;;;7.30;4.07;;;;;;;17.26;55.00;93544.03;2044662;70;20170;-72
2022/06/18 04:51:28;;;;;;;5.47;4.05;;;;;;;17.23;55.64;93548.19;2041930;70;20147;-74
2022/06/18 04:53:54;;;;;;;4.85;3.90;;;;;;;17.22;56.90;93541.72;2042015;69;20151;-73
2022/06/18 04:56:20;;;;;;;6.40;4.32;;;;;;;17.59;53.45;93540.66;2045420;70;20512;-75
2022/06/18 04:58:46;;;;;;;6.90;3.95;;;;;;;17.43;54.91;93546.31;2042018;70;20159;-71
2022/06/18 05:01:18;;;;;;;6.22;4.20;;;;;;;17.32;55.94;93555.00;2041845;70;20227;-74
2022/06/18 05:04:02;;;;;;;8.77;4.10;;;;;;;17.35;56.16;93551.59;2045313;70;20178;-72
2022/06/18 05:07:06;;;;;;;6.35;4.22;;;;;;;17.32;57.31;93558.59;2045335;70;20151;-72
2022/06/18 05:09:55;;;;;;;5.47;4.18;;;;;;;17.27;57.35;93559.75;2043229;70;20512;-73
2022/06/18 05:12:33;;;;;;;4.85;4.20;;;;;;;17.38;56.55;93563.84;2045008;70;20516;-74
2022/06/18 05:15:18;;;;;;;5.30;4.13;;;;;;;17.43;56.63;93562.66;2048261;70;20169;-72
2022/06/18 05:17:46;;;;;;;5.72;4.10;;;;;;;17.43;57.07;93569.09;2044676;70;20622;-71
2022/06/18 05:20:15;;;;;;;4.90;3.85;;;;;;;17.39;57.12;93571.75;2042956;70;20159;-73
2022/06/18 05:22:41;;;;;;;4.97;4.13;;;;;;;17.38;57.25;93578.81;2041970;70;20155;-72
2022/06/18 05:25:08;;;;;;;4.75;3.95;;;;;;;17.44;56.59;93576.25;2044714;70;20158;-73
2022/06/18 05:27:35;;;;;;;6.82;4.30;;;;;;;16.83;59.07;93583.84;2045413;70;20139;-74
2022/06/18 05:30:25;;;;;;;4.93;4.43;;;;;;;17.10;57.27;93580.97;2043459;70;20216;-73
2022/06/18 05:32:52;;;;;;;9.90;4.50;;;;;;;17.38;57.11;93573.13;2042610;70;20197;-72
2022/06/18 05:35:20;;;;;;;8.77;4.57;;;;;;;17.32;58.16;93584.22;2042973;70;20163;-73
2022/06/18 05:37:47;;;;;;;5.07;4.20;;;;;;;17.26;58.06;93573.25;2048009;70;20135;-74
2022/06/18 05:40:13;;;;;;;6.10;4.30;;;;;;;17.44;58.58;93575.53;2044460;70;20665;-72
2022/06/18 05:42:40;;;;;;;8.73;4.57;;;;;;;17.50;58.48;93581.50;2045874;70;20253;-74
2022/06/18 05:45:08;;;;;;;7.20;4.32;;;;;;;17.52;58.34;93575.94;2045655;70;20178;-73
2022/06/18 05:47:34;;;;;;;6.80;4.55;;;;;;;17.54;57.05;93590.25;2048824;70;20165;-72
2022/06/18 05:50:02;;;;;;;7.55;4.57;;;;;;;17.59;58.58;93580.53;2044662;70;20647;-76
2022/06/18 05:52:31;;;;;;;7.38;4.80;;;;;;;17.66;56.83;93585.16;2042435;70;20150;-73
2022/06/18 05:55:03;;;;;;;7.72;5.05;;;;;;;17.62;57.58;93584.94;2042595;70;20261;-72
2022/06/18 05:57:46;;;;;;;7.95;4.40;;;;;;;17.66;58.15;93579.47;2040022;70;20263;-72
2022/06/18 06:00:28;;;;;;;7.15;4.70;;;;;;;17.71;57.10;93569.72;2047646;70;20182;-72
2022/06/18 06:02:56;;;;;;;5.63;4.65;;;;;;;17.74;56.92;93567.75;2048319;70;20692;-72
2022/06/18 06:05:22;;;;;;;6.30;4.07;;;;;;;17.76;58.58;93570.69;2044990;70;20171;-72
2022/06/18 06:07:50;;;;;;;4.53;3.70;;;;;;;17.77;58.38;93567.19;2040037;70;20157;-71
2022/06/18 06:13:09;;;;;;;6.10;3.90;;;;;;;17.96;56.68;93565.22;2048853;70;20262;-72
2022/06/18 06:15:36;;;;;;;4.93;3.97;;;;;;;18.02;56.50;93562.66;2048967;70;20254;-72
2022/06/18 06:18:02;;;;;;;4.57;3.67;;;;;;;18.08;56.15;93565.78;2045546;70;20163;-71
2022/06/18 06:20:32;;;;;;;7.20;3.20;;;;;;;18.10;56.29;93562.28;2049002;70;20143;-72
2022/06/18 06:22:59;;;;;;;4.70;3.53;;;;;;;18.24;55.54;93565.84;2048996;70;20146;-72
2022/06/18 06:25:24;;;;;;;4.72;3.60;;;;;;;18.32;52.24;93568.28;2048902;70;20164;-71
2022/06/18 06:27:50;;;;;;;6.20;3.63;;;;;;;18.37;50.37;93567.09;2048913;70;20154;-73
2022/06/18 06:30:17;;;;;;;5.63;3.60;;;;;;;18.43;50.77;93567.41;2049005;70;20504;-72
2022/06/18 06:32:44;;;;;;;4.13;3.30;;;;;;;18.56;51.71;93574.41;2049020;70;20159;-73
2022/06/18 06:35:10;;;;;;;4.88;3.40;;;;;;;18.69;52.39;93565.75;2048994;70;20185;-75
2022/06/18 06:37:36;;;;;;;5.13;3.10;;;;;;;18.79;52.54;93560.50;2048183;70;20155;-74
2022/06/18 06:40:02;;;;;;;5.53;3.30;;;;;;;18.97;50.35;93556.97;2045553;70;20146;-76
2022/06/18 06:42:28;;;;;;;4.47;3.50;;;;;;;19.05;50.30;93555.19;2045605;70;20608;-72
2022/06/18 06:44:54;;;;;;;4.55;3.40;;;;;;;19.17;52.30;93551.41;2042275;70;20197;-73
2022/06/18 06:47:20;;;;;;;4.85;3.25;;;;;;;19.20;51.64;93547.25;2045389;70;20578;-71
2022/06/18 06:49:46;;;;;;;4.25;3.25;;;;;;;19.26;52.00;93541.78;2052626;69;20144;-72
2022/06/18 06:52:12;;;;;;;5.57;3.30;;;;;;;19.33;51.85;93548.47;2048521;70;20158;-73
2022/06/18 06:54:38;;;;;;;4.50;3.20;;;;;;;19.47;51.90;93546.97;2048730;70;20161;-71
2022/06/18 06:57:22;;;;;;;7.45;3.22;;;;;;;19.55;51.26;93537.97;2048549;70;20665;-71
2022/06/18 06:59:50;;;;;;;6.38;3.53;;;;;;;19.57;52.30;93534.50;2048937;70;20146;-74
2022/06/18 07:02:19;;;;;;;5.10;3.70;;;;;;;19.67;52.56;93529.94;2048266;70;20151;-72
2022/06/18 07:04:45;;;;;;;6.15;3.45;;;;;;;19.75;52.97;93527.41;2045106;70;20512;-73
2022/06/18 07:07:15;;;;;;;6.38;3.90;;;;;;;19.85;53.57;93529.22;2046483;70;20175;-79
2022/06/18 07:09:41;;;;;;;6.05;3.70;;;;;;;19.92;52.15;93525.91;2047175;69;20189;-71
2022/06/18 07:12:08;;;;;;;4.55;3.60;;;;;;;19.97;51.66;93518.22;2045837;70;20246;-76
2022/06/18 07:14:36;;;;;;;4.28;3.30;;;;;;;20.05;52.43;93515.69;2045731;70;20151;-75
2022/06/18 07:17:02;;;;;;;5.22;3.10;;;;;;;20.13;52.27;93516.00;2045605;70;20139;-75
2022/06/18 07:19:28;;;;;;;5.35;3.30;;;;;;;20.21;53.56;93504.91;2045814;70;20228;-74
2022/06/18 07:21:54;;;;;;;5.70;3.20;;;;;;;20.19;52.53;93493.38;2048373;70;20230;-74
2022/06/18 07:24:21;;;;;;;5.50;3.30;;;;;;;20.26;53.08;93497.94;2043940;70;20604;-72
2022/06/18 07:26:47;;;;;;;4.57;3.33;;;;;;;20.45;52.37;93487.91;2048326;70;20181;-71
2022/06/18 07:29:13;;;;;;;5.25;3.40;;;;;;;20.52;53.02;93483.88;2044908;70;20178;-73
2022/06/18 07:31:39;;;;;;;4.72;3.22;;;;;;;20.64;52.03;93488.59;2045503;70;20670;-71
2022/06/18 07:34:06;;;;;;;5.40;3.08;;;;;;;20.73;51.62;93478.91;2045801;70;20139;-72
2022/06/18 07:36:32;;;;;;;3.85;3.08;;;;;;;20.76;52.06;93466.88;2045674;70;20337;-72
2022/06/18 07:39:01;;;;;;;6.30;3.30;;;;;;;20.90;50.87;93471.63;2045585;70;20158;-72
2022/06/18 07:41:53;;;;;;;5.10;3.30;;;;;;;20.96;50.15;93469.69;2045429;70;20626;-72
2022/06/18 07:44:20;;;;;;;3.87;3.00;;;;;;;21.05;51.19;93467.84;2045253;70;20178;-73
2022/06/18 07:46:47;;;;;;;4.53;3.40;;;;;;;21.16;51.42;93461.06;2048528;70;20212;-72
2022/06/18 07:49:14;;;;;;;6.97;3.70;;;;;;;21.35;48.18;93453.84;2048334;70;20380;-76
2022/06/18 07:51:39;;;;;;;3.50;3.00;;;;;;;21.39;47.19;93453.97;2048493;70;20137;-77
2022/06/18 07:54:05;;;;;;;6.05;3.72;;;;;;;21.46;45.22;93455.63;2045340;70;20143;-71
2022/06/18 07:56:32;;;;;;;4.65;3.38;;;;;;;21.65;44.91;93451.22;2047942;70;20166;-73
2022/06/18 07:58:58;;;;;;;7.32;3.33;;;;;;;21.65;44.73;93447.63;2048657;70;20158;-77
2022/06/18 08:01:24;;;;;;;4.80;3.10;;;;;;;21.72;44.36;93446.41;2051712;70;20150;-73
2022/06/18 08:03:50;;;;;;;5.32;3.55;;;;;;;21.78;45.33;93444.47;2049550;70;20576;-72
2022/06/18 08:06:16;;;;;;;5.35;3.45;;;;;;;21.86;43.25;93432.53;2048937;70;20628;-76
2022/06/18 08:08:42;;;;;;;4.82;3.25;;;;;;;21.97;43.21;93427.81;2049132;70;20162;-73
2022/06/18 08:11:13;;;;;;;4.65;3.65;;;;;;;21.98;44.29;93423.53;2048957;70;20151;-72
2022/06/18 08:13:39;;;;;;;6.43;3.45;;;;;;;22.17;43.79;93421.97;2049188;70;20574;-73
2022/06/18 08:16:05;;;;;;;5.28;3.85;;;;;;;22.56;43.71;93415.94;2046226;70;20152;-73
2022/06/18 08:18:31;;;;;;;5.60;3.47;;;;;;;22.65;42.95;93416.16;2048787;70;20139;-76
2022/06/18 08:21:01;;;;;;;4.90;3.63;;;;;;;22.97;44.19;93411.31;2048476;70;20161;-73
2022/06/18 08:23:27;;;;;;;6.07;3.60;;;;;;;23.40;42.00;93414.50;2048487;70;20150;-74
2022/06/18 08:25:54;;;;;;;4.15;3.25;;;;;;;23.65;42.56;93413.72;2048512;70;20170;-74
2022/06/18 08:28:20;;;;;;;4.60;3.28;;;;;;;23.92;42.83;93409.28;2048513;70;20596;-73
2022/06/18 08:30:46;;;;;;;3.67;3.03;;;;;;;24.31;40.90;93410.09;2048553;70;20178;-75
2022/06/18 08:33:12;;;;;;;5.30;3.42;;;;;;;24.74;37.57;93405.22;2048445;70;20174;-76
2022/06/18 08:35:38;;;;;;;4.97;3.20;;;;;;;24.99;38.97;93400.66;2048158;70;20205;-73
2022/06/18 08:38:06;;;;;;;6.28;3.33;;;;;;;25.41;37.54;93397.78;2042834;70;20150;-77
2022/06/18 08:41:05;;;;;;;4.03;3.13;;;;;;;25.78;34.69;93389.75;2047877;70;20151;-73
2022/06/18 08:43:31;;;;;;;4.00;2.80;;;;;;;25.41;34.65;93391.31;2045599;69;20222;-75
2022/06/18 08:46:12;;;;;;;4.85;3.03;;;;;;;26.18;37.12;93386.69;2046802;70;20212;-72
2022/06/18 08:49:00;;;;;;;6.20;2.95;;;;;;;26.54;35.88;93383.56;2044969;70;20139;-75
2022/06/18 08:51:50;;;;;;;5.75;3.00;;;;;;;26.86;33.89;93388.25;2046600;70;20242;-76
2022/06/18 08:54:19;;;;;;;5.43;3.03;;;;;;;27.11;34.72;93374.81;2048044;70;20511;-79
2022/06/18 08:56:52;;;;;;;2.88;2.50;;;;;;;27.38;32.78;93384.44;2046737;70;20139;-78
2022/06/18 08:59:18;;;;;;;3.17;2.58;;;;;;;27.24;33.94;93382.16;2045567;70;20147;-77
2022/06/18 09:01:54;;;;;;;6.68;3.35;;;;;;;27.75;33.10;93373.91;2046831;70;20166;-74
2022/06/18 09:05:04;;;;;;;5.97;2.85;;;;;;;28.28;32.14;93373.50;2048545;70;20225;-74
2022/06/18 09:08:03;;;;;;;3.60;2.50;;;;;;;28.31;33.32;93372.06;2051015;70;20588;-75
2022/06/18 09:10:42;;;;;;;3.42;2.30;;;;;;;28.49;33.13;93369.28;2048216;70;20238;-76
2022/06/18 09:13:17;;;;;;;4.40;2.30;;;;;;;28.59;31.52;93363.53;2048836;70;20249;-79
2022/06/18 09:15:51;;;;;;;2.95;2.40;;;;;;;28.73;32.52;93362.13;2048800;70;20201;-78
2022/06/18 09:18:29;;;;;;;5.32;2.70;;;;;;;29.01;30.11;93356.44;2048786;70;20143;-75
2022/06/18 09:21:00;;;;;;;4.65;2.53;;;;;;;28.57;29.94;93354.09;2048499;70;20145;-77
2022/06/18 09:23:29;;;;;;;7.43;2.47;;;;;;;28.68;29.44;93355.59;2047813;70;20178;-78
2022/06/18 09:25:58;;;;;;;3.65;2.45;;;;;;;28.67;29.21;93353.41;2045431;70;20230;-78
2022/06/18 09:28:39;;;;;;;4.50;2.30;;;;;;;28.91;28.98;93362.19;2045459;70;20638;-80
2022/06/18 09:31:11;;;;;;;3.67;2.10;;;;;;;29.35;29.30;93355.00;2045461;70;20258;-77
2022/06/18 09:33:43;;;;;;;4.78;2.20;;;;;;;29.53;27.64;93348.50;2045555;70;20150;-78
2022/06/18 09:36:15;;;;;;;4.80;2.03;;;;;;;29.78;29.23;93340.50;2045463;70;20584;-81
2022/06/18 09:38:40;;;;;;;4.63;2.53;;;;;;;29.85;27.89;93344.88;2045494;70;20198;-77
2022/06/18 09:41:21;;;;;;;4.63;2.63;;;;;;;29.26;28.38;93353.56;2045205;70;20515;-81
2022/06/18 09:43:48;;;;;;;3.92;2.70;;;;;;;29.79;27.81;93347.78;2047280;70;20590;-79
2022/06/18 09:46:30;;;;;;;7.18;2.85;;;;;;;29.74;30.28;93338.38;2045086;70;20154;-81
2022/06/18 09:48:57;;;;;;;3.63;2.60;;;;;;;30.20;29.43;93336.13;2045248;70;20147;-79
2022/06/18 09:51:28;;;;;;;5.15;2.47;;;;;;;30.34;29.24;93339.69;2045843;70;20251;-76
2022/06/18 09:53:58;;;;;;;3.33;2.65;;;;;;;30.76;28.80;93334.47;2048681;70;20685;-73
2022/06/18 09:56:33;;;;;;;5.50;2.40;;;;;;;30.35;29.87;93337.50;2045459;70;20155;-76
2022/06/18 09:59:05;;;;;;;5.55;2.70;;;;;;;30.84;28.91;93325.69;2048616;70;20154;-75
2022/06/18 10:01:40;;;;;;;4.32;2.30;;;;;;;31.30;29.66;93327.59;2048752;70;20162;-76
2022/06/18 10:06:57;;;;;;;4.38;2.42;;;;;;;31.17;28.39;93325.50;2049058;70;20200;-74
2022/06/18 10:09:43;;;;;;;3.33;2.45;;;;;;;31.79;26.98;93323.53;2045881;70;20170;-74
2022/06/18 10:12:33;;;;;;;6.50;2.70;;;;;;;31.18;26.94;93310.19;2047379;70;20151;-74
2022/06/18 10:15:01;;;;;;;4.18;2.50;;;;;;;31.10;27.84;93313.16;2046007;70;20131;-73
2022/06/18 10:17:45;;;;;;;4.65;2.75;;;;;;;31.34;27.55;93303.59;2047943;70;20147;-73
2022/06/18 10:20:36;;;;;;;4.47;2.58;;;;;;;32.19;27.02;93298.41;2048589;70;20297;-75
2022/06/18 10:23:36;;;;;;;3.50;2.42;;;;;;;32.53;27.06;93295.13;2046085;70;20273;-74
2022/06/18 10:26:08;;;;;;;4.97;2.50;;;;;;;32.59;26.19;93292.13;2046106;70;20175;-73
2022/06/18 10:28:39;;;;;;;4.30;2.27;;;;;;;33.02;24.62;93293.75;2045942;70;20166;-72
2022/06/18 10:31:21;;;;;;;6.32;2.50;;;;;;;32.92;25.60;93276.41;2045956;70;20147;-72
2022/06/18 10:34:31;;;;;;;4.82;2.35;;;;;;;33.55;24.53;93287.09;2049231;70;20158;-73
2022/06/18 10:37:17;;;;;;;9.02;1.80;;;;;;;34.20;23.17;93279.41;2038147;70;20159;-73
2022/06/18 10:40:14;;;;;;;9.27;1.73;;;;;;;34.30;22.34;93273.34;2041834;70;20266;-73
2022/06/18 10:43:02;;;;;;;8.25;1.58;;;;;;;34.36;21.19;93281.97;2045251;70;20642;-71
2022/06/18 10:45:45;;;;;;;7.97;1.65;;;;;;;34.99;22.11;93277.03;2045781;70;20151;-72
2022/06/18 10:48:15;;;;;;;4.80;1.70;;;;;;;35.30;21.97;93274.13;2045975;70;20534;-72
2022/06/18 10:50:56;;;;;;;5.75;1.70;;;;;;;35.46;21.31;93273.75;2045484;70;20131;-72
2022/06/18 10:53:34;;;;;;;5.40;1.75;;;;;;;35.38;21.26;93259.31;2045118;70;20252;-72
2022/06/18 10:56:04;;;;;;;4.32;1.60;;;;;;;36.38;20.53;93260.38;2049187;70;20162;-72
2022/06/18 10:58:29;;;;;;;6.75;1.75;;;;;;;37.30;20.12;93259.91;2049291;70;20142;-73
2022/06/18 11:00:59;;;;;;;5.97;1.98;;;;;;;38.80;19.05;93265.75;2049130;70;20139;-74
2022/06/18 11:03:29;;;;;;;5.03;1.73;;;;;;;41.35;17.64;93269.03;2045787;70;20206;-74
2022/06/18 11:05:55;;;;;;;8.05;1.83;;;;;;;42.57;14.91;93268.16;2046745;70;20143;-77
2022/06/18 11:08:29;;;;;;;6.68;1.45;;;;;;;43.59;14.17;93256.72;2049257;70;20165;-76
2022/06/18 11:11:05;;;;;;;5.18;1.48;;;;;;;44.68;14.07;93269.63;2049127;70;20170;-78
2022/06/18 11:13:37;;;;;;;5.28;1.50;;;;;;;44.71;13.05;93259.03;2045914;70;20158;-75
2022/06/18 11:16:15;;;;;;;12.13;1.48;;;;;;;46.00;12.10;93263.50;2045871;70;20162;-77
2022/06/18 11:18:48;;;;;;;14.57;1.85;;;;;;;46.90;11.66;93256.69;2046021;70;20143;-74
2022/06/18 11:21:20;;;;;;;9.88;1.77;;;;;;;48.18;11.60;93253.41;2048101;70;20151;-72
2022/06/18 11:24:00;;;;;;;10.25;1.80;;;;;;;48.74;10.89;93255.91;2046056;70;20159;-79
2022/06/18 11:26:27;;;;;;;12.55;2.28;;;;;;;46.93;10.83;93243.13;2045994;70;20154;-79
2022/06/18 11:29:00;;;;;;;11.68;1.60;;;;;;;48.69;11.91;93246.53;2046014;70;20147;-77
2022/06/18 11:31:30;;;;;;;13.27;1.67;;;;;;;49.03;11.54;93243.13;2046398;70;20194;-73
2022/06/18 11:34:19;;;;;;;14.23;2.25;;;;;;;44.94;12.46;93227.97;2049350;70;20166;-75
2022/06/18 11:36:56;;;;;;;13.93;1.85;;;;;;;45.36;12.44;93221.56;2048470;70;20150;-73
2022/06/18 11:39:39;;;;;;;14.88;2.30;;;;;;;46.24;11.49;93228.44;2049217;70;20591;-75
2022/06/18 11:42:38;;;;;;;14.85;2.65;;;;;;;46.79;12.08;93224.66;2048057;70;20225;-77
2022/06/18 11:45:22;;;;;;;13.75;2.35;;;;;;;45.04;12.74;93221.41;2045881;70;20597;-79
2022/06/18 11:48:20;;;;;;;13.65;2.35;;;;;;;43.30;13.99;93207.22;2046124;70;20159;-77
2022/06/18 11:51:09;;;;;;;20.92;3.00;;;;;;;45.35;12.25;93203.03;2047427;70;20234;-73
2022/06/18 11:54:02;;;;;;;17.30;2.65;;;;;;;45.75;12.39;93198.25;2051857;70;20154;-71
2022/06/18 11:57:00;;;;;;;18.67;2.67;;;;;;;45.32;12.17;93192.13;2049277;70;20150;-72
2022/06/18 11:59:52;;;;;;;24.13;3.35;;;;;;;43.50;13.06;93175.75;2049450;70;20150;-73
2022/06/18 12:02:50;;;;;;;13.65;3.00;;;;;;;44.29;13.48;93174.03;2048984;70;20145;-73
2022/06/18 12:05:21;;;;;;;15.68;3.00;;;;;;;39.58;15.72;93145.63;2048829;70;20146;-76
2022/06/18 12:07:52;;;;;;;16.75;2.85;;;;;;;39.78;15.56;93149.97;2049246;70;20201;-72
2022/06/18 12:10:24;;;;;;;22.63;3.08;;;;;;;38.85;17.21;93134.63;2049327;70;20151;-77